Time;durP1;ratioP1;P1;durP2;ratioP2;P2;SDS_P1;SDS_P2;PMS_P1;PMS_P2;Temp;Humidity;BMP_temperature;BMP_pressure;BME280_temperature;BME280_humidity;BME280_pressure;Samples;Min_cycle;Max_cycle;Signal;HPM_P1;HPM_P2
2022/01/10 00:01:00;;;;;;;157.93;61.60;;;;;;;;;;6248705;28;20076;-61
2022/01/10 00:04:01;;;;;;;156.33;59.10;;;;;;;;;;6246906;28;20861;-62
2022/01/10 00:07:02;;;;;;;144.88;56.35;;;;;;;;;;6252222;28;20048;-62
2022/01/10 00:10:04;;;;;;;144.25;57.08;;;;;;;;;;6249912;28;20151;-62
2022/01/10 00:13:05;;;;;;;131.97;54.57;;;;;;;;;;6245962;28;21152;-61
2022/01/10 00:16:05;;;;;;;140.15;57.17;;;;;;;;;;6249755;28;20059;-61
2022/01/10 00:19:06;;;;;;;154.13;61.15;;;;;;;;;;6249930;28;20092;-61
2022/01/10 00:22:08;;;;;;;143.40;58.30;;;;;;;;;;6250351;28;20090;-62
2022/01/10 00:25:09;;;;;;;;;;;;;;;;;;6250630;28;20037;-62
2022/01/10 00:28:10;;;;;;;138.50;55.97;;;;;;;;;;6240736;28;20017;-61
2022/01/10 00:31:10;;;;;;;145.63;56.92;;;;;;;;;;6244275;28;20450;-62
2022/01/10 00:34:11;;;;;;;143.45;56.33;;;;;;;;;;6244426;28;20122;-62
2022/01/10 00:37:12;;;;;;;138.77;55.80;;;;;;;;;;6243951;28;20053;-62
2022/01/10 00:40:15;;;;;;;147.82;57.03;;;;;;;;;;6243557;28;20045;-62
2022/01/10 00:43:29;;;;;;;138.32;57.45;;;;;;;;;;6241043;28;21104;-62
2022/01/10 00:46:30;;;;;;;142.07;56.90;;;;;;;;;;6244172;28;20829;-63
2022/01/10 00:49:31;;;;;;;149.52;57.58;;;;;;;;;;6242412;28;20530;-63
2022/01/10 00:52:32;;;;;;;149.68;57.70;;;;;;;;;;6241079;28;20482;-63
2022/01/10 00:55:33;;;;;;;141.88;58.28;;;;;;;;;;6245718;28;20037;-63
2022/01/10 00:58:36;;;;;;;153.20;58.78;;;;;;;;;;6248155;28;20423;-63
2022/01/10 01:01:36;;;;;;;142.80;57.20;;;;;;;;;;6249771;28;20045;-63
2022/01/10 01:04:37;;;;;;;143.13;57.53;;;;;;;;;;6248009;28;20488;-62
2022/01/10 01:07:38;;;;;;;137.48;56.22;;;;;;;;;;6245671;28;20044;-62
2022/01/10 01:13:58;;;;;;;128.20;54.05;;;;;;;;;;6244490;28;20127;-62
2022/01/10 01:17:11;;;;;;;139.50;54.25;;;;;;;;;;6244766;28;20415;-62
2022/01/10 01:20:30;;;;;;;152.90;58.22;;;;;;;;;;6246834;28;20033;-64
2022/01/10 01:26:52;;;;;;;158.55;57.78;;;;;;;;;;6244185;28;20134;-63
2022/01/10 01:29:52;;;;;;;;;;;;;;;;;;6248416;28;20415;-62
2022/01/10 01:32:53;;;;;;;135.18;50.58;;;;;;;;;;6246394;28;19928;-63
2022/01/10 01:35:54;;;;;;;134.85;51.10;;;;;;;;;;6244997;28;20044;-63
2022/01/10 01:38:55;;;;;;;118.68;48.75;;;;;;;;;;6243991;28;20053;-63
2022/01/10 01:42:03;;;;;;;123.88;48.85;;;;;;;;;;6254794;28;20041;-63
2022/01/10 01:45:07;;;;;;;129.55;48.38;;;;;;;;;;6262593;28;20063;-62
2022/01/10 01:48:08;;;;;;;131.15;51.53;;;;;;;;;;6264272;28;20506;-62
2022/01/10 01:51:10;;;;;;;135.20;50.13;;;;;;;;;;6260173;28;20508;-62
2022/01/10 01:54:11;;;;;;;134.27;53.13;;;;;;;;;;6254410;28;20083;-62
2022/01/10 01:57:11;;;;;;;127.25;51.80;;;;;;;;;;6255054;28;20083;-64
2022/01/10 02:00:13;;;;;;;129.98;51.40;;;;;;;;;;6263863;28;20044;-64
2022/01/10 02:03:13;;;;;;;128.80;51.78;;;;;;;;;;6267029;28;20072;-63
2022/01/10 02:06:15;;;;;;;129.13;53.55;;;;;;;;;;6264986;28;20045;-63
2022/01/10 02:09:16;;;;;;;133.60;53.10;;;;;;;;;;6262516;28;20131;-62
2022/01/10 02:12:17;;;;;;;135.52;51.92;;;;;;;;;;6258757;28;20302;-63
2022/01/10 02:15:35;;;;;;;125.47;51.05;;;;;;;;;;6254785;28;20214;-62
2022/01/10 02:18:37;;;;;;;128.02;51.28;;;;;;;;;;6244634;28;20484;-62
2022/01/10 02:21:38;;;;;;;119.32;47.13;;;;;;;;;;6258771;28;20052;-62
2022/01/10 02:24:39;;;;;;;136.43;50.90;;;;;;;;;;6258030;28;20069;-63
2022/01/10 02:27:40;;;;;;;131.98;53.17;;;;;;;;;;6264368;28;20049;-63
2022/01/10 02:30:41;;;;;;;135.50;54.60;;;;;;;;;;6253467;28;20120;-62
2022/01/10 02:33:41;;;;;;;137.65;55.42;;;;;;;;;;6248839;28;20048;-63
2022/01/10 02:36:42;;;;;;;145.20;58.55;;;;;;;;;;6252200;28;20523;-62
2022/01/10 02:39:43;;;;;;;158.77;63.17;;;;;;;;;;6253752;28;20045;-62
2022/01/10 02:42:43;;;;;;;156.95;62.85;;;;;;;;;;6251178;28;20098;-62
2022/01/10 02:45:45;;;;;;;159.68;62.65;;;;;;;;;;6254767;28;20045;-63
2022/01/10 02:48:46;;;;;;;160.55;64.18;;;;;;;;;;6251445;28;20044;-62
2022/01/10 02:51:47;;;;;;;153.27;61.45;;;;;;;;;;6254396;28;20046;-62
2022/01/10 02:54:48;;;;;;;156.68;61.42;;;;;;;;;;6252493;28;20122;-63
2022/01/10 02:57:48;;;;;;;146.82;59.83;;;;;;;;;;6255822;28;20037;-64
2022/01/10 03:00:49;;;;;;;127.43;53.63;;;;;;;;;;6252794;28;20049;-63
2022/01/10 03:03:50;;;;;;;116.78;48.90;;;;;;;;;;6251518;28;20106;-63
2022/01/10 03:06:51;;;;;;;110.88;48.05;;;;;;;;;;6270414;28;21058;-64
2022/01/10 03:09:51;;;;;;;110.43;47.92;;;;;;;;;;6253630;28;20045;-62
2022/01/10 03:12:52;;;;;;;117.07;49.50;;;;;;;;;;6253317;28;20041;-63
2022/01/10 03:15:53;;;;;;;112.15;49.28;;;;;;;;;;6253568;28;20037;-62
2022/01/10 03:18:53;;;;;;;115.10;48.42;;;;;;;;;;6253600;28;20056;-63
2022/01/10 03:21:54;;;;;;;110.93;45.40;;;;;;;;;;6254136;28;20429;-63
2022/01/10 03:24:55;;;;;;;111.18;46.83;;;;;;;;;;6253744;28;20090;-63
2022/01/10 03:27:56;;;;;;;111.55;46.30;;;;;;;;;;6254079;28;20163;-64
2022/01/10 03:30:56;;;;;;;114.28;46.72;;;;;;;;;;6249515;28;20049;-64
2022/01/10 03:33:57;;;;;;;110.32;48.25;;;;;;;;;;6246076;28;20101;-63
2022/01/10 03:36:58;;;;;;;109.22;47.72;;;;;;;;;;6254413;28;21063;-64
2022/01/10 03:39:59;;;;;;;107.32;48.00;;;;;;;;;;6252363;28;20389;-64
2022/01/10 03:42:59;;;;;;;115.85;49.95;;;;;;;;;;6250301;28;20049;-64
2022/01/10 03:46:00;;;;;;;126.22;53.92;;;;;;;;;;6251901;28;20091;-63
2022/01/10 03:49:01;;;;;;;121.10;50.70;;;;;;;;;;6246938;28;20072;-63
2022/01/10 03:52:03;;;;;;;121.68;51.00;;;;;;;;;;6254407;28;20099;-61
2022/01/10 03:55:04;;;;;;;120.55;52.63;;;;;;;;;;6249952;28;20044;-61
2022/01/10 03:58:05;;;;;;;115.93;50.28;;;;;;;;;;6249688;28;20034;-63
2022/01/10 04:01:08;;;;;;;113.38;46.72;;;;;;;;;;6249113;28;20162;-63
2022/01/10 04:04:09;;;;;;;107.20;46.60;;;;;;;;;;6251244;28;20091;-64
2022/01/10 04:07:11;;;;;;;119.85;48.80;;;;;;;;;;6252322;28;20055;-62
2022/01/10 04:10:13;;;;;;;117.30;49.13;;;;;;;;;;6243806;28;20087;-63
2022/01/10 04:13:13;;;;;;;118.30;50.10;;;;;;;;;;6250555;28;20048;-62
2022/01/10 04:16:14;;;;;;;113.35;47.63;;;;;;;;;;6253497;28;20045;-62
2022/01/10 04:19:15;;;;;;;123.45;53.63;;;;;;;;;;6251868;28;20045;-63
2022/01/10 04:22:15;;;;;;;130.77;53.35;;;;;;;;;;6252069;28;20064;-61
2022/01/10 04:25:16;;;;;;;129.30;53.08;;;;;;;;;;6251314;28;20546;-64
2022/01/10 04:28:17;;;;;;;137.48;55.40;;;;;;;;;;6247650;28;20053;-63
2022/01/10 04:31:18;;;;;;;149.45;59.35;;;;;;;;;;6251914;28;20135;-63
2022/01/10 04:34:18;;;;;;;151.32;62.28;;;;;;;;;;6252576;28;20451;-61
2022/01/10 04:37:19;;;;;;;160.95;63.72;;;;;;;;;;6252019;28;20052;-63
2022/01/10 04:40:21;;;;;;;145.73;61.28;;;;;;;;;;6253604;28;20064;-62
2022/01/10 04:43:21;;;;;;;153.52;62.05;;;;;;;;;;6253978;28;21065;-62
2022/01/10 04:46:22;;;;;;;175.70;66.10;;;;;;;;;;6250991;28;20064;-63
2022/01/10 04:49:26;;;;;;;187.48;64.65;;;;;;;;;;6240143;28;20463;-62
2022/01/10 04:52:29;;;;;;;167.20;59.58;;;;;;;;;;6240590;28;20091;-64
2022/01/10 04:55:29;;;;;;;;;;;;;;;;;;6245250;28;20040;-63
2022/01/10 04:58:30;;;;;;;163.18;58.38;;;;;;;;;;6239619;28;20268;-62
2022/01/10 05:01:31;;;;;;;151.57;56.20;;;;;;;;;;6247518;28;20049;-63
2022/01/10 05:04:32;;;;;;;165.57;58.35;;;;;;;;;;6250241;28;20034;-62
2022/01/10 05:07:32;;;;;;;151.15;56.05;;;;;;;;;;6248544;28;20045;-63
2022/01/10 05:10:33;;;;;;;163.07;54.65;;;;;;;;;;6242862;28;20046;-62
2022/01/10 05:13:34;;;;;;;158.73;56.30;;;;;;;;;;6238757;28;20046;-63
2022/01/10 05:16:35;;;;;;;146.00;52.13;;;;;;;;;;6240375;28;20079;-62
2022/01/10 05:19:35;;;;;;;157.25;56.45;;;;;;;;;;6249769;28;20403;-62
2022/01/10 05:22:36;;;;;;;146.35;50.83;;;;;;;;;;6247851;28;20120;-62
2022/01/10 05:25:40;;;;;;;152.82;54.08;;;;;;;;;;6249660;28;20057;-62
2022/01/10 05:28:41;;;;;;;155.30;53.35;;;;;;;;;;6248846;28;20877;-61
2022/01/10 05:31:41;;;;;;;216.55;68.47;;;;;;;;;;6241644;28;20050;-62
2022/01/10 05:34:43;;;;;;;213.45;66.03;;;;;;;;;;6241223;28;20087;-62
2022/01/10 05:37:44;;;;;;;206.55;68.53;;;;;;;;;;6266589;28;20045;-63
2022/01/10 05:40:45;;;;;;;177.48;58.20;;;;;;;;;;6253783;28;20538;-63
2022/01/10 05:43:45;;;;;;;178.15;58.35;;;;;;;;;;6246331;28;20645;-62
2022/01/10 05:46:47;;;;;;;175.43;57.35;;;;;;;;;;6252614;28;20042;-63
2022/01/10 05:49:49;;;;;;;158.80;55.63;;;;;;;;;;6242805;28;20421;-61
2022/01/10 05:52:50;;;;;;;133.77;48.97;;;;;;;;;;6245862;28;20080;-63
2022/01/10 05:55:50;;;;;;;125.32;47.33;;;;;;;;;;6245147;28;20476;-62
2022/01/10 05:58:51;;;;;;;129.00;46.63;;;;;;;;;;6249443;28;20504;-63
2022/01/10 06:01:52;;;;;;;154.88;53.85;;;;;;;;;;6254049;28;20455;-63
2022/01/10 06:04:54;;;;;;;136.60;49.70;;;;;;;;;;6249243;28;20052;-62
2022/01/10 06:07:55;;;;;;;135.63;49.78;;;;;;;;;;6256092;28;20041;-61
2022/01/10 06:10:55;;;;;;;147.23;51.72;;;;;;;;;;6258769;28;20084;-62
2022/01/10 06:13:56;;;;;;;164.25;55.53;;;;;;;;;;6238498;28;20155;-60
2022/01/10 06:16:57;;;;;;;161.95;56.15;;;;;;;;;;6250612;28;20087;-63
2022/01/10 06:19:59;;;;;;;172.50;60.55;;;;;;;;;;6255966;28;20480;-63
2022/01/10 06:23:00;;;;;;;200.15;69.38;;;;;;;;;;6249773;28;20044;-63
2022/01/10 06:26:00;;;;;;;159.40;61.58;;;;;;;;;;6247611;28;20467;-62
2022/01/10 06:29:02;;;;;;;136.90;53.75;;;;;;;;;;6244142;28;20045;-63
2022/01/10 06:32:03;;;;;;;143.17;54.33;;;;;;;;;;6249215;28;20559;-62
2022/01/10 06:35:05;;;;;;;147.05;51.90;;;;;;;;;;6253090;28;20138;-61
2022/01/10 06:38:05;;;;;;;140.15;51.97;;;;;;;;;;6249343;28;20053;-61
2022/01/10 06:41:06;;;;;;;189.23;64.50;;;;;;;;;;6250844;28;20034;-62
2022/01/10 06:44:07;;;;;;;177.15;62.63;;;;;;;;;;6253204;28;20055;-62
2022/01/10 06:47:08;;;;;;;135.45;52.03;;;;;;;;;;6253229;28;20065;-61
2022/01/10 06:50:09;;;;;;;232.43;74.95;;;;;;;;;;6249672;28;20060;-61
2022/01/10 06:53:10;;;;;;;200.68;66.18;;;;;;;;;;6253149;28;20115;-62
2022/01/10 06:56:10;;;;;;;177.88;60.75;;;;;;;;;;6251691;28;20049;-64
2022/01/10 06:59:11;;;;;;;175.63;60.90;;;;;;;;;;6253470;28;20045;-61
2022/01/10 07:02:13;;;;;;;247.60;80.30;;;;;;;;;;6250875;28;20666;-63
2022/01/10 07:05:14;;;;;;;180.15;60.95;;;;;;;;;;6255413;28;20088;-62
2022/01/10 07:08:14;;;;;;;174.00;59.17;;;;;;;;;;6253064;28;20044;-62
2022/01/10 07:11:15;;;;;;;170.63;60.42;;;;;;;;;;6250190;28;20400;-61
2022/01/10 07:14:17;;;;;;;171.38;62.13;;;;;;;;;;6253363;28;20067;-62
2022/01/10 07:17:18;;;;;;;161.23;62.22;;;;;;;;;;6251132;28;20094;-61
2022/01/10 07:20:18;;;;;;;144.40;58.13;;;;;;;;;;6247906;28;20085;-62
2022/01/10 07:23:19;;;;;;;154.93;59.88;;;;;;;;;;6249296;28;20171;-62
2022/01/10 07:26:20;;;;;;;139.98;55.33;;;;;;;;;;6251010;28;20139;-64
2022/01/10 07:29:21;;;;;;;137.45;55.08;;;;;;;;;;6248065;28;20059;-61
2022/01/10 07:32:22;;;;;;;136.43;52.88;;;;;;;;;;6247529;28;20135;-61
2022/01/10 07:35:22;;;;;;;131.10;51.95;;;;;;;;;;6253338;28;20052;-64
2022/01/10 07:38:23;;;;;;;137.48;52.80;;;;;;;;;;6254918;28;20552;-62
2022/01/10 07:41:24;;;;;;;129.98;51.10;;;;;;;;;;6251787;28;20065;-64
2022/01/10 07:44:25;;;;;;;123.88;48.60;;;;;;;;;;6249823;28;20049;-63
2022/01/10 07:47:25;;;;;;;122.60;50.58;;;;;;;;;;6249086;28;20048;-62
2022/01/10 07:50:26;;;;;;;118.03;47.83;;;;;;;;;;6251479;28;20094;-62
2022/01/10 07:53:27;;;;;;;114.30;44.75;;;;;;;;;;6249374;28;20854;-63
2022/01/10 07:56:27;;;;;;;104.65;40.50;;;;;;;;;;6253003;28;20120;-61
2022/01/10 07:59:28;;;;;;;92.72;37.97;;;;;;;;;;6250785;28;20732;-60
2022/01/10 08:02:29;;;;;;;92.22;37.28;;;;;;;;;;6250593;28;20102;-62
2022/01/10 08:05:29;;;;;;;91.35;38.28;;;;;;;;;;6253917;28;20048;-63
2022/01/10 08:08:30;;;;;;;95.65;39.25;;;;;;;;;;6251250;28;20055;-62
2022/01/10 08:11:31;;;;;;;106.88;40.42;;;;;;;;;;6250487;28;20171;-63
2022/01/10 08:14:32;;;;;;;108.78;41.70;;;;;;;;;;6247968;28;20045;-60
2022/01/10 08:17:33;;;;;;;113.33;42.83;;;;;;;;;;6244299;28;20551;-61
2022/01/10 08:20:34;;;;;;;101.13;41.58;;;;;;;;;;6244594;28;20041;-62
2022/01/10 08:23:35;;;;;;;103.03;41.65;;;;;;;;;;6241335;28;20064;-62
2022/01/10 08:26:35;;;;;;;106.88;42.17;;;;;;;;;;6244881;28;20585;-61
2022/01/10 08:29:37;;;;;;;94.50;37.13;;;;;;;;;;6254274;28;20060;-60
2022/01/10 08:32:38;;;;;;;93.18;38.65;;;;;;;;;;6249885;28;20496;-63
2022/01/10 08:35:39;;;;;;;88.22;39.13;;;;;;;;;;6245453;28;20052;-63
2022/01/10 08:38:40;;;;;;;91.40;37.05;;;;;;;;;;6251678;28;20148;-61
2022/01/10 08:41:41;;;;;;;94.85;38.20;;;;;;;;;;6251282;28;21005;-64
2022/01/10 08:44:42;;;;;;;88.68;35.58;;;;;;;;;;6248180;28;20056;-63
2022/01/10 08:47:43;;;;;;;97.45;38.88;;;;;;;;;;6251645;28;20072;-62
2022/01/10 08:50:44;;;;;;;93.85;36.92;;;;;;;;;;6250213;28;20045;-64
2022/01/10 08:53:45;;;;;;;84.43;35.28;;;;;;;;;;6255019;28;20126;-62
2022/01/10 08:56:45;;;;;;;80.18;34.53;;;;;;;;;;6263059;28;20103;-64
2022/01/10 08:59:46;;;;;;;80.82;34.58;;;;;;;;;;6255980;28;20155;-62
2022/01/10 09:02:47;;;;;;;102.13;41.03;;;;;;;;;;6247381;28;20045;-62
2022/01/10 09:05:48;;;;;;;99.35;38.28;;;;;;;;;;6246725;28;20118;-63
2022/01/10 09:08:49;;;;;;;80.32;32.30;;;;;;;;;;6240939;28;20052;-63
2022/01/10 09:11:50;;;;;;;69.47;28.87;;;;;;;;;;6239691;28;20045;-63
2022/01/10 09:14:51;;;;;;;68.82;28.38;;;;;;;;;;6241332;28;20398;-62
2022/01/10 09:17:51;;;;;;;72.95;29.23;;;;;;;;;;6240536;28;20103;-64
2022/01/10 09:20:52;;;;;;;69.65;28.55;;;;;;;;;;6249497;28;20512;-62
2022/01/10 09:23:53;;;;;;;68.18;27.13;;;;;;;;;;6243315;28;20045;-62
2022/01/10 09:26:53;;;;;;;63.80;28.00;;;;;;;;;;6245362;28;20492;-61
2022/01/10 09:29:54;;;;;;;60.25;26.60;;;;;;;;;;6254104;28;20049;-60
2022/01/10 09:32:55;;;;;;;60.13;27.17;;;;;;;;;;6258042;28;20042;-61
2022/01/10 09:35:56;;;;;;;60.75;25.95;;;;;;;;;;6256809;28;20076;-62
2022/01/10 09:38:59;;;;;;;60.47;26.48;;;;;;;;;;6258509;28;20414;-62
2022/01/10 09:42:00;;;;;;;63.17;26.33;;;;;;;;;;6257992;28;20072;-62
2022/01/10 09:45:02;;;;;;;57.40;26.10;;;;;;;;;;6257131;28;20041;-63
2022/01/10 09:48:06;;;;;;;57.85;24.25;;;;;;;;;;6256620;28;20828;-63
2022/01/10 09:51:06;;;;;;;52.17;23.15;;;;;;;;;;6258976;28;20499;-62
2022/01/10 09:54:07;;;;;;;55.85;25.92;;;;;;;;;;6251929;28;20047;-64
2022/01/10 09:57:07;;;;;;;50.00;23.05;;;;;;;;;;6246618;28;20054;-62
2022/01/10 10:00:10;;;;;;;72.10;30.40;;;;;;;;;;6244470;28;20046;-63
2022/01/10 10:03:11;;;;;;;84.18;34.15;;;;;;;;;;6243611;28;20087;-61
2022/01/10 10:06:12;;;;;;;69.07;29.40;;;;;;;;;;6244938;28;20500;-61
2022/01/10 10:09:13;;;;;;;71.40;29.33;;;;;;;;;;6243266;28;20049;-64
2022/01/10 10:12:14;;;;;;;57.95;26.33;;;;;;;;;;6254761;28;20085;-61
2022/01/10 10:15:18;;;;;;;66.50;27.00;;;;;;;;;;6251037;28;20507;-61
2022/01/10 10:18:20;;;;;;;89.50;36.67;;;;;;;;;;6247889;28;20045;-61
2022/01/10 10:21:21;;;;;;;65.65;25.50;;;;;;;;;;6253643;28;20054;-61
2022/01/10 10:24:23;;;;;;;66.60;26.42;;;;;;;;;;6256348;28;20163;-61
2022/01/10 10:27:24;;;;;;;68.43;26.23;;;;;;;;;;6256233;28;20095;-62
2022/01/10 10:30:28;;;;;;;60.53;24.90;;;;;;;;;;6252517;28;20317;-61
2022/01/10 10:33:29;;;;;;;56.65;22.00;;;;;;;;;;6255165;28;20048;-61
2022/01/10 10:36:31;;;;;;;55.70;21.67;;;;;;;;;;6251702;28;20049;-62
2022/01/10 10:39:36;;;;;;;50.35;18.50;;;;;;;;;;6247678;28;20489;-61
2022/01/10 10:42:41;;;;;;;47.70;19.23;;;;;;;;;;6244964;28;20052;-61
2022/01/10 10:45:43;;;;;;;52.03;19.70;;;;;;;;;;6244648;28;20048;-62
2022/01/10 10:48:49;;;;;;;43.22;17.08;;;;;;;;;;6243654;28;20488;-61
2022/01/10 10:51:51;;;;;;;45.30;16.35;;;;;;;;;;6243669;28;20059;-61
2022/01/10 10:54:55;;;;;;;35.25;15.48;;;;;;;;;;6241529;28;20073;-62
2022/01/10 10:57:56;;;;;;;42.05;18.35;;;;;;;;;;6243022;28;20044;-61
2022/01/10 11:00:58;;;;;;;40.80;16.67;;;;;;;;;;6241137;28;20068;-61
2022/01/10 11:03:59;;;;;;;34.80;14.02;;;;;;;;;;6240334;28;20057;-61
2022/01/10 11:07:00;;;;;;;40.92;15.80;;;;;;;;;;6240967;28;20132;-61
2022/01/10 11:10:04;;;;;;;40.85;15.45;;;;;;;;;;6240973;28;20053;-61
2022/01/10 11:13:07;;;;;;;42.08;16.20;;;;;;;;;;6241350;28;20535;-61
2022/01/10 11:16:08;;;;;;;37.88;15.85;;;;;;;;;;6241343;28;20065;-61
2022/01/10 11:19:18;;;;;;;38.05;15.77;;;;;;;;;;6240705;28;20440;-61
2022/01/10 11:22:19;;;;;;;39.30;15.90;;;;;;;;;;6243273;28;20053;-61
2022/01/10 11:25:22;;;;;;;38.13;15.70;;;;;;;;;;6241835;28;20507;-61
2022/01/10 11:28:25;;;;;;;34.22;13.30;;;;;;;;;;6244611;28;20046;-61
2022/01/10 11:31:27;;;;;;;30.48;12.75;;;;;;;;;;6244134;28;20053;-61
2022/01/10 11:34:29;;;;;;;33.15;12.77;;;;;;;;;;6243812;28;20451;-62
2022/01/10 11:37:31;;;;;;;31.70;13.27;;;;;;;;;;6241237;28;20523;-62
2022/01/10 11:40:32;;;;;;;33.30;13.27;;;;;;;;;;6239561;28;20091;-62
2022/01/10 11:43:36;;;;;;;30.00;13.02;;;;;;;;;;6241739;28;20065;-61
2022/01/10 11:46:48;;;;;;;28.23;11.95;;;;;;;;;;6241556;28;20072;-62
2022/01/10 11:50:23;;;;;;;32.67;12.50;;;;;;;;;;6244378;28;20052;-62
2022/01/10 11:53:24;;;;;;;29.65;10.95;;;;;;;;;;6242545;28;20042;-61
2022/01/10 11:56:31;;;;;;;24.25;11.77;;;;;;;;;;6240867;28;20041;-61
2022/01/10 11:59:33;;;;;;;35.33;13.55;;;;;;;;;;6241585;28;20156;-61
2022/01/10 12:02:35;;;;;;;38.20;14.05;;;;;;;;;;6238455;28;20045;-62
2022/01/10 12:05:36;;;;;;;25.23;11.40;;;;;;;;;;6240296;28;20060;-61
2022/01/10 12:08:37;;;;;;;25.63;10.40;;;;;;;;;;6242255;28;20513;-61
2022/01/10 12:15:10;;;;;;;25.15;11.50;;;;;;;;;;6513861;22;20062;-65
2022/01/10 12:18:13;;;;;;;25.20;10.07;;;;;;;;;;6213516;28;20049;-63
2022/01/10 12:21:14;;;;;;;28.55;11.45;;;;;;;;;;6216472;28;20072;-66
2022/01/10 12:24:17;;;;;;;29.30;11.13;;;;;;;;;;6215406;28;20049;-65
2022/01/10 12:27:18;;;;;;;;;;;;;;;;;;6215942;28;20037;-66
2022/01/10 12:30:20;;;;;;;29.60;10.82;;;;;;;;;;6215399;28;19991;-65
2022/01/10 12:33:20;;;;;;;32.13;11.85;;;;;;;;;;6217031;28;20514;-67
2022/01/10 12:36:24;;;;;;;44.17;15.82;;;;;;;;;;6216543;28;20056;-66
2022/01/10 12:39:28;;;;;;;43.63;15.68;;;;;;;;;;6213573;28;20045;-67
2022/01/10 12:42:29;;;;;;;41.97;14.07;;;;;;;;;;6210550;28;20052;-67
2022/01/10 12:45:37;;;;;;;55.05;17.23;;;;;;;;;;6209703;28;20132;-67
2022/01/10 12:48:39;;;;;;;77.13;18.48;;;;;;;;;;6210108;28;20046;-68
2022/01/10 12:51:51;;;;;;;;;;;;;;;;;;6215636;28;20084;-64
2022/01/10 12:54:52;;;;;;;67.40;18.70;;;;;;;;;;6208563;28;19936;-65
2022/01/10 12:57:52;;;;;;;93.30;22.33;;;;;;;;;;6212479;28;20069;-63
2022/01/10 13:00:53;;;;;;;43.58;15.90;;;;;;;;;;6208007;28;20076;-64
2022/01/10 13:03:57;;;;;;;44.58;13.95;;;;;;;;;;6210972;28;20488;-65
2022/01/10 13:06:59;;;;;;;44.53;14.15;;;;;;;;;;6216178;28;20863;-64
2022/01/10 13:10:05;;;;;;;44.88;14.75;;;;;;;;;;6211883;28;20042;-65
2022/01/10 13:13:09;;;;;;;54.22;16.75;;;;;;;;;;6213221;28;20500;-67
2022/01/10 13:16:23;;;;;;;62.67;18.75;;;;;;;;;;6211397;28;20037;-68
2022/01/10 13:19:28;;;;;;;70.72;19.63;;;;;;;;;;6211548;28;20053;-65
2022/01/10 13:22:36;;;;;;;67.57;19.60;;;;;;;;;;6211849;28;20061;-66
2022/01/10 13:25:49;;;;;;;47.88;16.38;;;;;;;;;;6214781;28;20496;-64
2022/01/10 13:28:50;;;;;;;42.08;14.88;;;;;;;;;;6219768;28;20810;-66
2022/01/10 13:31:50;;;;;;;32.95;12.45;;;;;;;;;;6218026;28;20049;-65
2022/01/10 13:34:54;;;;;;;71.07;21.00;;;;;;;;;;6214840;28;20048;-65
2022/01/10 13:38:13;;;;;;;48.83;15.60;;;;;;;;;;6216025;28;20113;-66
2022/01/10 13:41:14;;;;;;;40.58;14.10;;;;;;;;;;6210635;28;20115;-66
2022/01/10 13:44:15;;;;;;;43.05;15.73;;;;;;;;;;6211870;28;20056;-64
2022/01/10 13:47:15;;;;;;;49.45;16.55;;;;;;;;;;6211483;28;20038;-65
2022/01/10 13:50:31;;;;;;;50.70;17.00;;;;;;;;;;6206484;28;20038;-65
2022/01/10 13:53:41;;;;;;;55.78;19.05;;;;;;;;;;6216983;28;20065;-66
2022/01/10 13:56:45;;;;;;;31.05;12.55;;;;;;;;;;6212715;28;20061;-66
2022/01/10 13:59:45;;;;;;;42.95;15.35;;;;;;;;;;6214906;28;20435;-63
2022/01/10 14:02:46;;;;;;;44.08;15.18;;;;;;;;;;6216314;28;20096;-66
2022/01/10 14:06:06;;;;;;;39.75;15.45;;;;;;;;;;6210896;28;20033;-64
2022/01/10 14:09:07;;;;;;;38.10;15.77;;;;;;;;;;6212480;28;20045;-64
2022/01/10 14:12:10;;;;;;;39.63;15.07;;;;;;;;;;6214436;28;20182;-65
2022/01/10 14:15:11;;;;;;;42.42;16.30;;;;;;;;;;6213704;28;20058;-66
2022/01/10 14:18:11;;;;;;;40.08;17.30;;;;;;;;;;6215826;28;20574;-63
2022/01/10 14:21:13;;;;;;;47.03;19.55;;;;;;;;;;6213325;28;20166;-66
2022/01/10 14:24:13;;;;;;;47.08;17.92;;;;;;;;;;6212993;28;20054;-66
2022/01/10 14:27:14;;;;;;;45.15;16.67;;;;;;;;;;6214248;28;20041;-66
2022/01/10 14:30:17;;;;;;;40.65;16.33;;;;;;;;;;6213872;28;20042;-66
2022/01/10 14:33:22;;;;;;;38.60;15.73;;;;;;;;;;6210753;28;20180;-66
2022/01/10 14:36:23;;;;;;;32.00;12.93;;;;;;;;;;6212703;28;20594;-66
2022/01/10 14:39:24;;;;;;;38.15;17.75;;;;;;;;;;6211615;28;20736;-67
2022/01/10 14:42:30;;;;;;;33.00;14.57;;;;;;;;;;6216072;28;20146;-66
2022/01/10 14:45:31;;;;;;;38.75;15.80;;;;;;;;;;6212547;28;20066;-66
2022/01/10 14:48:31;;;;;;;43.85;17.48;;;;;;;;;;6211169;28;20050;-66
2022/01/10 14:51:32;;;;;;;42.65;18.08;;;;;;;;;;6212947;28;20387;-66
2022/01/10 14:54:34;;;;;;;46.72;17.75;;;;;;;;;;6209684;28;20132;-67
2022/01/10 14:57:34;;;;;;;49.75;19.35;;;;;;;;;;6209430;28;20050;-67
2022/01/10 15:00:35;;;;;;;47.67;18.83;;;;;;;;;;6210351;28;20199;-65
2022/01/10 15:03:36;;;;;;;40.55;15.80;;;;;;;;;;6209231;28;20547;-66
2022/01/10 15:06:37;;;;;;;41.38;17.25;;;;;;;;;;6213242;28;20056;-66
2022/01/10 15:09:38;;;;;;;41.80;16.88;;;;;;;;;;6209953;28;20045;-65
2022/01/10 15:12:38;;;;;;;39.85;17.25;;;;;;;;;;6211868;28;20056;-66
2022/01/10 15:15:40;;;;;;;45.72;17.63;;;;;;;;;;6209713;28;20054;-66
2022/01/10 15:18:42;;;;;;;40.05;15.75;;;;;;;;;;6210039;28;20472;-66
2022/01/10 15:21:44;;;;;;;38.65;15.20;;;;;;;;;;6211523;28;20216;-65
2022/01/10 15:24:45;;;;;;;41.20;16.58;;;;;;;;;;6208901;28;20046;-65
2022/01/10 15:27:46;;;;;;;46.38;17.40;;;;;;;;;;6209998;28;20702;-66
2022/01/10 15:30:46;;;;;;;44.15;17.85;;;;;;;;;;6215100;28;20048;-68
2022/01/10 15:33:48;;;;;;;42.80;17.48;;;;;;;;;;6214544;28;20448;-64
2022/01/10 15:36:48;;;;;;;33.65;14.63;;;;;;;;;;6215442;28;20089;-64
2022/01/10 15:39:49;;;;;;;35.17;14.45;;;;;;;;;;6215360;28;20037;-64
2022/01/10 15:42:50;;;;;;;48.85;18.30;;;;;;;;;;6206047;28;20197;-69
2022/01/10 15:45:51;;;;;;;44.55;17.45;;;;;;;;;;6194515;28;20077;-65
2022/01/10 15:48:51;;;;;;;47.80;18.08;;;;;;;;;;6195841;28;20543;-69
2022/01/10 15:51:52;;;;;;;76.03;24.67;;;;;;;;;;6195785;28;20089;-68
2022/01/10 15:54:53;;;;;;;67.78;20.27;;;;;;;;;;6194139;28;20049;-67
2022/01/10 15:57:57;;;;;;;49.58;17.60;;;;;;;;;;6194730;28;20069;-70
2022/01/10 16:00:58;;;;;;;50.08;18.17;;;;;;;;;;6197143;28;20056;-63
2022/01/10 16:03:58;;;;;;;51.47;18.02;;;;;;;;;;6196454;28;20317;-68
2022/01/10 16:07:00;;;;;;;57.45;18.77;;;;;;;;;;6197541;28;20061;-67
2022/01/10 16:10:04;;;;;;;45.10;16.02;;;;;;;;;;6196366;28;20137;-65
2022/01/10 16:13:05;;;;;;;63.53;20.15;;;;;;;;;;6196017;28;20703;-65
2022/01/10 16:16:06;;;;;;;39.28;14.32;;;;;;;;;;6198310;28;20053;-67
2022/01/10 16:19:07;;;;;;;46.13;17.30;;;;;;;;;;6195869;28;20653;-70
2022/01/10 16:22:08;;;;;;;67.15;31.92;;;;;;;;;;6193751;28;20536;-65
2022/01/10 16:25:08;;;;;;;40.35;15.07;;;;;;;;;;6192030;28;20092;-69
2022/01/10 16:28:09;;;;;;;39.63;15.48;;;;;;;;;;6193762;28;20054;-68
2022/01/10 16:31:11;;;;;;;52.88;17.25;;;;;;;;;;6200184;28;20041;-67
2022/01/10 16:34:12;;;;;;;48.08;17.90;;;;;;;;;;6194799;28;20440;-68
2022/01/10 16:37:13;;;;;;;50.20;18.35;;;;;;;;;;6196125;28;20038;-68
2022/01/10 16:40:14;;;;;;;47.95;18.60;;;;;;;;;;6195692;28;20050;-65
2022/01/10 16:43:16;;;;;;;60.47;22.50;;;;;;;;;;6193074;28;20168;-69
2022/01/10 16:46:22;;;;;;;57.88;18.88;;;;;;;;;;6193538;28;20088;-66
2022/01/10 16:49:28;;;;;;;53.65;20.67;;;;;;;;;;6195485;28;20043;-64
2022/01/10 16:52:32;;;;;;;57.15;19.13;;;;;;;;;;6193459;28;20065;-70
2022/01/10 16:55:34;;;;;;;63.00;21.17;;;;;;;;;;6192399;28;20073;-68
2022/01/10 16:58:35;;;;;;;59.50;20.50;;;;;;;;;;6194558;28;20505;-69
2022/01/10 17:01:37;;;;;;;55.33;20.20;;;;;;;;;;6196031;28;20073;-67
2022/01/10 17:04:39;;;;;;;53.45;19.25;;;;;;;;;;6194410;28;20189;-67
2022/01/10 17:07:40;;;;;;;63.50;22.37;;;;;;;;;;6191378;28;20053;-66
2022/01/10 17:10:41;;;;;;;73.10;24.15;;;;;;;;;;6191624;28;20045;-69
2022/01/10 17:13:42;;;;;;;51.20;18.20;;;;;;;;;;6191646;28;20122;-65
2022/01/10 17:16:43;;;;;;;58.10;20.45;;;;;;;;;;6194658;28;20477;-68
2022/01/10 17:19:45;;;;;;;52.63;18.75;;;;;;;;;;6191891;28;20046;-70
2022/01/10 17:22:47;;;;;;;56.03;18.88;;;;;;;;;;6191813;28;20053;-63
2022/01/10 17:25:48;;;;;;;;;;;;;;;;;;6191726;28;20047;-71
2022/01/10 17:28:48;;;;;;;49.78;18.33;;;;;;;;;;6189693;28;20327;-65
2022/01/10 17:31:49;;;;;;;47.33;18.35;;;;;;;;;;6191064;28;20157;-68
2022/01/10 17:34:50;;;;;;;55.13;20.33;;;;;;;;;;6189448;28;20064;-68
2022/01/10 17:37:50;;;;;;;55.13;20.17;;;;;;;;;;6191327;28;20162;-69
2022/01/10 17:40:52;;;;;;;51.28;20.27;;;;;;;;;;6191734;28;20089;-69
2022/01/10 17:43:53;;;;;;;48.17;18.15;;;;;;;;;;6193157;28;20490;-68